sensor_id;sensor_type;location;lat;lon;timestamp;pressure;altitude;pressure_sealevel;temperature;humidity
34742;BME280;20968;42.696;23.360;2023-04-03T00:00:52;94649.06;;;12.36;52.84
34742;BME280;20968;42.696;23.360;2023-04-03T00:03:18;94649.06;;;12.36;51.95
34742;BME280;20968;42.696;23.360;2023-04-03T00:05:45;94641.25;;;12.35;52.34
34742;BME280;20968;42.696;23.360;2023-04-03T00:08:10;94641.03;;;12.33;52.40
34742;BME280;20968;42.696;23.360;2023-04-03T00:10:36;94632.22;;;12.29;52.80
34742;BME280;20968;42.696;23.360;2023-04-03T00:13:03;94635.50;;;12.27;52.87
34742;BME280;20968;42.696;23.360;2023-04-03T00:15:28;94622.69;;;12.24;52.98
34742;BME280;20968;42.696;23.360;2023-04-03T00:17:53;94616.41;;;12.24;53.61
34742;BME280;20968;42.696;23.360;2023-04-03T00:20:19;94624.69;;;12.18;53.31
34742;BME280;20968;42.696;23.360;2023-04-03T00:22:44;94616.16;;;12.16;53.63
34742;BME280;20968;42.696;23.360;2023-04-03T00:25:11;94611.88;;;12.15;54.17
34742;BME280;20968;42.696;23.360;2023-04-03T00:27:37;94617.19;;;12.13;53.81
34742;BME280;20968;42.696;23.360;2023-04-03T00:30:03;94619.16;;;12.13;54.01
34742;BME280;20968;42.696;23.360;2023-04-03T00:32:28;94622.19;;;12.09;53.58
34742;BME280;20968;42.696;23.360;2023-04-03T00:35:00;94618.66;;;12.03;53.39
34742;BME280;20968;42.696;23.360;2023-04-03T00:37:25;94621.69;;;12.00;54.29
34742;BME280;20968;42.696;23.360;2023-04-03T00:39:50;94628.72;;;12.01;53.90
34742;BME280;20968;42.696;23.360;2023-04-03T00:42:16;94625.19;;;12.00;53.47
34742;BME280;20968;42.696;23.360;2023-04-03T00:47:08;94630.69;;;12.00;54.46
34742;BME280;20968;42.696;23.360;2023-04-03T00:49:37;94637.22;;;11.97;53.42
34742;BME280;20968;42.696;23.360;2023-04-03T00:52:02;94631.72;;;11.97;54.13
34742;BME280;20968;42.696;23.360;2023-04-03T00:54:28;94625.69;;;11.93;53.62
34742;BME280;20968;42.696;23.360;2023-04-03T00:56:53;94622.94;;;11.88;53.74
34742;BME280;20968;42.696;23.360;2023-04-03T00:59:24;94630.94;;;11.86;54.38
34742;BME280;20968;42.696;23.360;2023-04-03T01:01:52;94626.69;;;11.85;53.76
34742;BME280;20968;42.696;23.360;2023-04-03T01:04:29;94630.69;;;11.84;54.19
34742;BME280;20968;42.696;23.360;2023-04-03T01:06:56;94629.94;;;11.83;54.33
34742;BME280;20968;42.696;23.360;2023-04-03T01:09:22;94628.44;;;11.82;54.49
34742;BME280;20968;42.696;23.360;2023-04-03T01:11:47;94630.44;;;11.82;54.48
34742;BME280;20968;42.696;23.360;2023-04-03T01:14:15;94627.66;;;11.82;54.24
34742;BME280;20968;42.696;23.360;2023-04-03T01:16:40;94632.19;;;11.79;54.69
34742;BME280;20968;42.696;23.360;2023-04-03T01:19:06;94636.97;;;11.79;54.35
34742;BME280;20968;42.696;23.360;2023-04-03T01:24:32;94633.94;;;11.77;54.75
34742;BME280;20968;42.696;23.360;2023-04-03T01:26:58;94629.19;;;11.72;54.94
34742;BME280;20968;42.696;23.360;2023-04-03T01:29:24;94634.44;;;11.75;54.82
34742;BME280;20968;42.696;23.360;2023-04-03T01:31:51;94632.19;;;11.68;54.28
34742;BME280;20968;42.696;23.360;2023-04-03T01:34:16;94636.91;;;11.57;54.53
34742;BME280;20968;42.696;23.360;2023-04-03T01:36:52;94637.84;;;11.49;54.47
34742;BME280;20968;42.696;23.360;2023-04-03T01:39:18;94641.34;;;11.44;54.70
34742;BME280;20968;42.696;23.360;2023-04-03T01:41:43;94633.31;;;11.40;55.05
34742;BME280;20968;42.696;23.360;2023-04-03T01:44:09;94631.03;;;11.28;55.51
34742;BME280;20968;42.696;23.360;2023-04-03T01:46:35;94631.44;;;11.10;56.21
34742;BME280;20968;42.696;23.360;2023-04-03T01:49:00;94638.09;;;10.87;56.63
34742;BME280;20968;42.696;23.360;2023-04-03T01:51:26;94637.78;;;10.74;56.93
34742;BME280;20968;42.696;23.360;2023-04-03T01:53:51;94640.28;;;10.78;57.08
34742;BME280;20968;42.696;23.360;2023-04-03T01:56:17;94639.06;;;10.79;57.13
34742;BME280;20968;42.696;23.360;2023-04-03T01:58:42;94646.56;;;10.78;57.21
34742;BME280;20968;42.696;23.360;2023-04-03T02:01:07;94645.31;;;10.79;56.91
34742;BME280;20968;42.696;23.360;2023-04-03T02:03:33;94645.06;;;10.77;57.06
34742;BME280;20968;42.696;23.360;2023-04-03T02:06:00;94650.34;;;10.81;57.45
34742;BME280;20968;42.696;23.360;2023-04-03T02:08:25;94639.34;;;10.86;57.22
34742;BME280;20968;42.696;23.360;2023-04-03T02:10:51;94655.38;;;10.87;57.10
34742;BME280;20968;42.696;23.360;2023-04-03T02:13:16;94642.84;;;10.86;56.86
34742;BME280;20968;42.696;23.360;2023-04-03T02:15:42;94645.09;;;10.88;57.07
34742;BME280;20968;42.696;23.360;2023-04-03T02:18:07;94640.59;;;10.85;56.94
34742;BME280;20968;42.696;23.360;2023-04-03T02:20:33;94643.88;;;10.89;56.82
34742;BME280;20968;42.696;23.360;2023-04-03T02:22:59;94644.34;;;10.82;57.23
34742;BME280;20968;42.696;23.360;2023-04-03T02:25:25;94643.31;;;10.80;57.12
34742;BME280;20968;42.696;23.360;2023-04-03T02:27:51;94636.06;;;10.82;57.15
34742;BME280;20968;42.696;23.360;2023-04-03T02:30:16;94625.09;;;10.87;56.56
34742;BME280;20968;42.696;23.360;2023-04-03T02:32:42;94630.09;;;10.89;56.86
34742;BME280;20968;42.696;23.360;2023-04-03T02:35:08;94623.34;;;10.90;56.68
34742;BME280;20968;42.696;23.360;2023-04-03T02:37:33;94621.56;;;10.87;57.07
34742;BME280;20968;42.696;23.360;2023-04-03T02:39:59;94617.28;;;10.86;57.14
34742;BME280;20968;42.696;23.360;2023-04-03T02:42:24;94624.31;;;10.87;57.06
34742;BME280;20968;42.696;23.360;2023-04-03T02:44:56;94616.81;;;10.87;57.13
34742;BME280;20968;42.696;23.360;2023-04-03T02:47:26;94620.78;;;10.81;57.32
34742;BME280;20968;42.696;23.360;2023-04-03T02:49:54;94625.28;;;10.79;57.05
34742;BME280;20968;42.696;23.360;2023-04-03T02:52:20;94623.75;;;10.72;56.96
34742;BME280;20968;42.696;23.360;2023-04-03T02:54:45;94616.28;;;10.78;57.54
34742;BME280;20968;42.696;23.360;2023-04-03T02:57:10;94612.00;;;10.77;57.25
34742;BME280;20968;42.696;23.360;2023-04-03T02:59:37;94612.25;;;10.79;56.73
34742;BME280;20968;42.696;23.360;2023-04-03T03:02:05;94605.69;;;10.71;56.74
34742;BME280;20968;42.696;23.360;2023-04-03T03:04:31;94609.72;;;10.70;57.40
34742;BME280;20968;42.696;23.360;2023-04-03T03:06:56;94609.72;;;10.70;57.44
34742;BME280;20968;42.696;23.360;2023-04-03T03:09:22;94608.69;;;10.68;57.06
34742;BME280;20968;42.696;23.360;2023-04-03T03:11:47;94611.44;;;10.62;57.29
34742;BME280;20968;42.696;23.360;2023-04-03T03:14:12;94600.66;;;10.59;57.59
34742;BME280;20968;42.696;23.360;2023-04-03T03:16:37;94606.63;;;10.57;57.02
34742;BME280;20968;42.696;23.360;2023-04-03T03:19:03;94595.84;;;10.54;57.72
34742;BME280;20968;42.696;23.360;2023-04-03T03:21:29;94603.84;;;10.52;57.58
34742;BME280;20968;42.696;23.360;2023-04-03T03:23:55;94596.09;;;10.50;57.25
34742;BME280;20968;42.696;23.360;2023-04-03T03:26:20;94604.06;;;10.48;57.85
34742;BME280;20968;42.696;23.360;2023-04-03T03:28:45;94597.56;;;10.46;57.57
34742;BME280;20968;42.696;23.360;2023-04-03T03:31:11;94599.56;;;10.45;57.70
34742;BME280;20968;42.696;23.360;2023-04-03T03:33:37;94606.59;;;10.46;58.07
34742;BME280;20968;42.696;23.360;2023-04-03T03:36:10;94605.06;;;10.45;57.73
34742;BME280;20968;42.696;23.360;2023-04-03T03:38:35;94605.53;;;10.38;58.37
34742;BME280;20968;42.696;23.360;2023-04-03T03:41:01;94604.06;;;10.43;57.84
34742;BME280;20968;42.696;23.360;2023-04-03T03:43:27;94607.06;;;10.45;58.18
34742;BME280;20968;42.696;23.360;2023-04-03T03:46:04;94615.53;;;10.41;58.24
34742;BME280;20968;42.696;23.360;2023-04-03T03:48:31;94614.56;;;10.44;58.49
34742;BME280;20968;42.696;23.360;2023-04-03T03:50:56;94600.06;;;10.44;58.49
34742;BME280;20968;42.696;23.360;2023-04-03T03:53:21;94606.25;;;10.39;58.08
34742;BME280;20968;42.696;23.360;2023-04-03T03:55:47;94610.25;;;10.32;58.37
34742;BME280;20968;42.696;23.360;2023-04-03T03:58:16;94615.94;;;10.23;57.41
34742;BME280;20968;42.696;23.360;2023-04-03T04:00:45;94612.63;;;10.19;57.10
34742;BME280;20968;42.696;23.360;2023-04-03T04:03:11;94607.84;;;10.14;57.86
34742;BME280;20968;42.696;23.360;2023-04-03T04:05:36;94607.84;;;10.14;57.13
34742;BME280;20968;42.696;23.360;2023-04-03T04:08:01;94604.50;;;10.00;58.10
34742;BME280;20968;42.696;23.360;2023-04-03T04:10:27;94602.69;;;9.97;57.89
34742;BME280;20968;42.696;23.360;2023-04-03T04:12:52;94596.75;;;10.04;57.45
34742;BME280;20968;42.696;23.360;2023-04-03T04:15:19;94600.00;;;10.02;57.52
34742;BME280;20968;42.696;23.360;2023-04-03T04:17:51;94606.25;;;10.03;57.56
34742;BME280;20968;42.696;23.360;2023-04-03T04:20:19;94612.28;;;10.07;57.62
34742;BME280;20968;42.696;23.360;2023-04-03T04:22:44;94617.06;;;10.11;57.65
34742;BME280;20968;42.696;23.360;2023-04-03T04:25:11;94629.84;;;10.14;57.58
34742;BME280;20968;42.696;23.360;2023-04-03T04:27:37;94624.38;;;10.14;57.97
34742;BME280;20968;42.696;23.360;2023-04-03T04:30:03;94633.84;;;10.13;57.86
34742;BME280;20968;42.696;23.360;2023-04-03T04:32:29;94628.84;;;10.12;57.32
34742;BME280;20968;42.696;23.360;2023-04-03T04:34:57;94632.56;;;10.09;57.43
34742;BME280;20968;42.696;23.360;2023-04-03T04:37:23;94628.53;;;10.05;57.41
34742;BME280;20968;42.696;23.360;2023-04-03T04:39:48;94632.78;;;10.06;57.54
34742;BME280;20968;42.696;23.360;2023-04-03T04:42:13;94635.47;;;10.00;57.53
34742;BME280;20968;42.696;23.360;2023-04-03T04:44:39;94638.00;;;10.04;57.80
34742;BME280;20968;42.696;23.360;2023-04-03T04:47:04;94643.28;;;10.07;57.11
34742;BME280;20968;42.696;23.360;2023-04-03T04:49:30;94636.56;;;10.08;57.53
34742;BME280;20968;42.696;23.360;2023-04-03T04:51:55;94638.34;;;10.11;57.57
34742;BME280;20968;42.696;23.360;2023-04-03T04:54:20;94649.84;;;10.15;57.27
34742;BME280;20968;42.696;23.360;2023-04-03T04:56:46;94652.88;;;10.17;57.90
34742;BME280;20968;42.696;23.360;2023-04-03T04:59:11;94653.44;;;10.21;57.75
34742;BME280;20968;42.696;23.360;2023-04-03T05:01:36;94649.97;;;10.26;57.48
34742;BME280;20968;42.696;23.360;2023-04-03T05:04:02;94651.41;;;10.21;57.52
34742;BME280;20968;42.696;23.360;2023-04-03T05:06:27;94658.59;;;10.13;57.38
34742;BME280;20968;42.696;23.360;2023-04-03T05:08:52;94670.94;;;10.54;69.50
34742;BME280;20968;42.696;23.360;2023-04-03T05:11:17;94666.56;;;11.26;70.53
34742;BME280;20968;42.696;23.360;2023-04-03T05:13:43;94671.09;;;11.98;67.08
34742;BME280;20968;42.696;23.360;2023-04-03T05:16:08;94673.38;;;12.32;61.55
34742;BME280;20968;42.696;23.360;2023-04-03T05:18:33;94676.41;;;12.56;60.36
34742;BME280;20968;42.696;23.360;2023-04-03T05:20:59;94679.38;;;13.07;59.38
34742;BME280;20968;42.696;23.360;2023-04-03T05:23:24;94683.25;;;13.44;57.07
34742;BME280;20968;42.696;23.360;2023-04-03T05:25:49;94683.72;;;13.59;55.08
34742;BME280;20968;42.696;23.360;2023-04-03T05:28:15;94683.13;;;13.77;50.25
34742;BME280;20968;42.696;23.360;2023-04-03T05:30:40;94685.22;;;13.60;49.94
34742;BME280;20968;42.696;23.360;2023-04-03T05:33:06;94682.78;;;13.40;50.65
34742;BME280;20968;42.696;23.360;2023-04-03T05:35:31;94676.03;;;13.25;50.25
34742;BME280;20968;42.696;23.360;2023-04-03T05:37:57;94682.88;;;13.08;51.05
34742;BME280;20968;42.696;23.360;2023-04-03T05:40:22;94673.38;;;12.92;51.11
34742;BME280;20968;42.696;23.360;2023-04-03T05:42:48;94674.13;;;12.76;51.41
34742;BME280;20968;42.696;23.360;2023-04-03T05:45:13;94671.88;;;12.58;51.12
34742;BME280;20968;42.696;23.360;2023-04-03T05:47:39;94679.41;;;12.47;52.04
34742;BME280;20968;42.696;23.360;2023-04-03T05:50:04;94676.88;;;12.38;52.73
34742;BME280;20968;42.696;23.360;2023-04-03T05:52:33;94669.88;;;12.37;52.56
34742;BME280;20968;42.696;23.360;2023-04-03T05:55:00;94666.59;;;12.33;52.47
34742;BME280;20968;42.696;23.360;2023-04-03T05:57:28;94662.59;;;12.12;53.76
34742;BME280;20968;42.696;23.360;2023-04-03T05:59:54;94655.28;;;12.04;53.04
34742;BME280;20968;42.696;23.360;2023-04-03T06:02:21;94653.78;;;11.97;53.66
34742;BME280;20968;42.696;23.360;2023-04-03T06:04:47;94648.25;;;11.86;53.63
34742;BME280;20968;42.696;23.360;2023-04-03T06:07:19;94658.78;;;11.82;54.79
34742;BME280;20968;42.696;23.360;2023-04-03T06:09:46;94661.28;;;11.80;54.44
34742;BME280;20968;42.696;23.360;2023-04-03T06:12:13;94656.78;;;11.88;54.47
34742;BME280;20968;42.696;23.360;2023-04-03T06:14:38;94644.75;;;11.91;54.14
34742;BME280;20968;42.696;23.360;2023-04-03T06:17:04;94640.50;;;11.90;54.44
34742;BME280;20968;42.696;23.360;2023-04-03T06:19:29;94636.22;;;11.89;54.26
34742;BME280;20968;42.696;23.360;2023-04-03T06:21:55;94626.69;;;11.90;54.49
34742;BME280;20968;42.696;23.360;2023-04-03T06:24:21;94637.69;;;11.79;54.30
34742;BME280;20968;42.696;23.360;2023-04-03T06:26:51;94636.94;;;11.73;55.15
34742;BME280;20968;42.696;23.360;2023-04-03T06:29:17;94647.72;;;11.71;54.81
34742;BME280;20968;42.696;23.360;2023-04-03T06:31:43;94665.25;;;11.74;55.64
34742;BME280;20968;42.696;23.360;2023-04-03T06:34:08;94660.28;;;11.78;55.57
34742;BME280;20968;42.696;23.360;2023-04-03T06:36:34;94654.75;;;11.89;55.67
34742;BME280;20968;42.696;23.360;2023-04-03T06:38:59;94666.59;;;11.95;55.31
34742;BME280;20968;42.696;23.360;2023-04-03T06:41:25;94665.09;;;11.99;55.03
34742;BME280;20968;42.696;23.360;2023-04-03T06:43:51;94665.06;;;12.05;55.09
34742;BME280;20968;42.696;23.360;2023-04-03T06:46:16;94669.34;;;11.95;54.49
34742;BME280;20968;42.696;23.360;2023-04-03T06:48:43;94658.81;;;11.99;55.07
34742;BME280;20968;42.696;23.360;2023-04-03T06:51:15;94655.06;;;12.07;55.37
34742;BME280;20968;42.696;23.360;2023-04-03T06:53:43;94650.31;;;12.19;55.22
34742;BME280;20968;42.696;23.360;2023-04-03T06:56:08;94663.34;;;12.18;54.94
34742;BME280;20968;42.696;23.360;2023-04-03T06:58:34;94660.59;;;12.24;55.40
34742;BME280;20968;42.696;23.360;2023-04-03T07:00:59;94657.56;;;12.27;55.05
34742;BME280;20968;42.696;23.360;2023-04-03T07:03:25;94672.13;;;12.33;54.82
34742;BME280;20968;42.696;23.360;2023-04-03T07:05:50;94662.59;;;12.40;54.82
34742;BME280;20968;42.696;23.360;2023-04-03T07:08:16;94660.59;;;12.40;55.13
34742;BME280;20968;42.696;23.360;2023-04-03T07:10:42;94648.81;;;12.45;55.79
34742;BME280;20968;42.696;23.360;2023-04-03T07:13:07;94656.56;;;12.57;55.15
34742;BME280;20968;42.696;23.360;2023-04-03T07:15:32;94652.53;;;12.53;55.46
34742;BME280;20968;42.696;23.360;2023-04-03T07:17:58;94652.06;;;12.54;53.90
34742;BME280;20968;42.696;23.360;2023-04-03T07:20:25;94634.97;;;12.61;54.44
34742;BME280;20968;42.696;23.360;2023-04-03T07:22:50;94642.47;;;12.66;55.62
34742;BME280;20968;42.696;23.360;2023-04-03T07:25:16;94641.72;;;12.88;54.09
34742;BME280;20968;42.696;23.360;2023-04-03T07:27:41;94636.41;;;13.01;54.87
34742;BME280;20968;42.696;23.360;2023-04-03T07:30:06;94632.63;;;13.09;54.38
34742;BME280;20968;42.696;23.360;2023-04-03T07:32:32;94654.72;;;13.15;54.09
34742;BME280;20968;42.696;23.360;2023-04-03T07:34:58;94651.13;;;13.30;53.95
34742;BME280;20968;42.696;23.360;2023-04-03T07:37:23;94637.81;;;13.40;53.94
34742;BME280;20968;42.696;23.360;2023-04-03T07:39:48;94640.22;;;13.54;53.16
34742;BME280;20968;42.696;23.360;2023-04-03T07:42:13;94637.03;;;13.39;52.81
34742;BME280;20968;42.696;23.360;2023-04-03T07:44:39;94637.22;;;13.52;52.73
34742;BME280;20968;42.696;23.360;2023-04-03T07:47:05;94630.09;;;13.68;53.47
34742;BME280;20968;42.696;23.360;2023-04-03T07:49:30;94624.81;;;13.70;52.84
34742;BME280;20968;42.696;23.360;2023-04-03T07:51:56;94613.16;;;13.82;53.14
34742;BME280;20968;42.696;23.360;2023-04-03T07:54:21;94618.47;;;13.80;52.93
34742;BME280;20968;42.696;23.360;2023-04-03T07:56:46;94619.47;;;13.77;53.22
34742;BME280;20968;42.696;23.360;2023-04-03T07:59:12;94617.94;;;13.82;53.65
34742;BME280;20968;42.696;23.360;2023-04-03T08:01:39;94609.38;;;13.85;53.53
34742;BME280;20968;42.696;23.360;2023-04-03T08:04:04;94613.09;;;13.93;52.91
34742;BME280;20968;42.696;23.360;2023-04-03T08:06:30;94611.75;;;14.05;52.87
34742;BME280;20968;42.696;23.360;2023-04-03T08:08:57;94616.81;;;14.01;52.83
34742;BME280;20968;42.696;23.360;2023-04-03T08:11:23;94608.75;;;14.03;52.93
34742;BME280;20968;42.696;23.360;2023-04-03T08:13:51;94607.22;;;14.07;52.94
34742;BME280;20968;42.696;23.360;2023-04-03T08:16:17;94599.75;;;13.97;53.03
34742;BME280;20968;42.696;23.360;2023-04-03T08:18:43;94596.09;;;13.78;52.98
34742;BME280;20968;42.696;23.360;2023-04-03T08:21:10;94591.66;;;13.64;53.54
34742;BME280;20968;42.696;23.360;2023-04-03T08:23:36;94599.16;;;13.69;52.88
34742;BME280;20968;42.696;23.360;2023-04-03T08:26:09;94599.00;;;13.91;52.43
34742;BME280;20968;42.696;23.360;2023-04-03T08:28:34;94596.63;;;14.06;52.02
34742;BME280;20968;42.696;23.360;2023-04-03T08:31:06;94600.16;;;14.12;52.24
34742;BME280;20968;42.696;23.360;2023-04-03T08:33:32;94597.06;;;14.21;51.68
34742;BME280;20968;42.696;23.360;2023-04-03T08:35:58;94604.34;;;14.24;59.65
34742;BME280;20968;42.696;23.360;2023-04-03T08:38:24;94602.63;;;14.45;54.95
34742;BME280;20968;42.696;23.360;2023-04-03T08:41:13;94582.00;;;14.70;57.50
34742;BME280;20968;42.696;23.360;2023-04-03T08:43:53;94570.13;;;15.17;54.60
34742;BME280;20968;42.696;23.360;2023-04-03T08:46:22;94582.63;;;15.29;49.09
34742;BME280;20968;42.696;23.360;2023-04-03T08:48:48;94582.00;;;14.93;48.98
34742;BME280;20968;42.696;23.360;2023-04-03T08:51:16;94578.47;;;14.93;48.86
34742;BME280;20968;42.696;23.360;2023-04-03T08:53:45;94568.16;;;14.70;49.89
34742;BME280;20968;42.696;23.360;2023-04-03T08:56:13;94570.63;;;14.73;50.04
34742;BME280;20968;42.696;23.360;2023-04-03T08:58:45;94567.34;;;14.75;50.18
34742;BME280;20968;42.696;23.360;2023-04-03T09:01:17;94580.22;;;14.72;49.65
34742;BME280;20968;42.696;23.360;2023-04-03T09:03:43;94567.50;;;14.58;49.92
34742;BME280;20968;42.696;23.360;2023-04-03T09:16:55;94546.31;;;14.84;50.04
34742;BME280;20968;42.696;23.360;2023-04-03T09:19:35;94547.69;;;14.96;50.77
34742;BME280;20968;42.696;23.360;2023-04-03T09:22:21;94547.38;;;15.00;50.39
34742;BME280;20968;42.696;23.360;2023-04-03T09:27:32;94543.75;;;15.10;50.67
34742;BME280;20968;42.696;23.360;2023-04-03T09:29:58;94537.38;;;15.15;50.46
34742;BME280;20968;42.696;23.360;2023-04-03T09:34:52;94527.31;;;15.12;50.76
34742;BME280;20968;42.696;23.360;2023-04-03T09:37:36;94529.34;;;15.12;50.64
34742;BME280;20968;42.696;23.360;2023-04-03T09:40:02;94530.00;;;15.23;50.75
34742;BME280;20968;42.696;23.360;2023-04-03T09:42:29;94535.34;;;15.16;50.04
34742;BME280;20968;42.696;23.360;2023-04-03T09:44:57;94524.88;;;15.27;50.62
34742;BME280;20968;42.696;23.360;2023-04-03T09:47:29;94521.75;;;15.36;50.56
34742;BME280;20968;42.696;23.360;2023-04-03T09:52:49;94516.19;;;15.36;50.15
34742;BME280;20968;42.696;23.360;2023-04-03T09:58:05;94509.84;;;15.41;50.13
34742;BME280;20968;42.696;23.360;2023-04-03T10:00:53;94501.94;;;15.45;50.61
34742;BME280;20968;42.696;23.360;2023-04-03T10:03:28;94506.47;;;15.30;50.16
34742;BME280;20968;42.696;23.360;2023-04-03T10:05:53;94498.25;;;15.19;51.15
34742;BME280;20968;42.696;23.360;2023-04-03T10:08:22;94500.34;;;14.94;50.93
34742;BME280;20968;42.696;23.360;2023-04-03T10:11:04;94495.22;;;14.98;52.08
34742;BME280;20968;42.696;23.360;2023-04-03T10:13:30;94497.63;;;14.89;51.52
34742;BME280;20968;42.696;23.360;2023-04-03T10:21:08;94495.91;;;15.23;51.70
34742;BME280;20968;42.696;23.360;2023-04-03T10:23:44;94487.69;;;15.17;51.62
34742;BME280;20968;42.696;23.360;2023-04-03T10:26:31;94491.66;;;15.03;51.55
34742;BME280;20968;42.696;23.360;2023-04-03T10:29:21;94484.44;;;14.95;51.79
34742;BME280;20968;42.696;23.360;2023-04-03T10:34:40;94476.72;;;15.06;52.76
34742;BME280;20968;42.696;23.360;2023-04-03T10:37:18;94472.00;;;15.01;52.30
34742;BME280;20968;42.696;23.360;2023-04-03T10:52:57;94454.16;;;15.15;52.19
34742;BME280;20968;42.696;23.360;2023-04-03T10:57:52;94452.75;;;15.09;52.02
34742;BME280;20968;42.696;23.360;2023-04-03T11:00:52;94455.69;;;15.16;52.20
34742;BME280;20968;42.696;23.360;2023-04-03T11:03:12;94454.53;;;15.06;51.39
34742;BME280;20968;42.696;23.360;2023-04-03T11:05:41;94455.97;;;14.94;51.55
34742;BME280;20968;42.696;23.360;2023-04-03T11:08:13;94462.72;;;14.99;52.07
34742;BME280;20968;42.696;23.360;2023-04-03T11:10:42;94462.13;;;14.87;52.40
34742;BME280;20968;42.696;23.360;2023-04-03T11:13:10;94468.78;;;14.97;53.34
34742;BME280;20968;42.696;23.360;2023-04-03T11:15:39;94469.06;;;14.94;52.25
34742;BME280;20968;42.696;23.360;2023-04-03T11:18:13;94472.88;;;14.73;52.57
34742;BME280;20968;42.696;23.360;2023-04-03T11:20:41;94482.75;;;14.68;53.55
34742;BME280;20968;42.696;23.360;2023-04-03T11:25:42;94463.69;;;14.41;55.38
34742;BME280;20968;42.696;23.360;2023-04-03T11:28:12;94463.97;;;14.37;56.21
34742;BME280;20968;42.696;23.360;2023-04-03T11:35:52;94470.59;;;14.29;57.55
34742;BME280;20968;42.696;23.360;2023-04-03T11:38:29;94470.19;;;14.19;58.60
34742;BME280;20968;42.696;23.360;2023-04-03T11:40:56;94464.56;;;14.01;59.84
34742;BME280;20968;42.696;23.360;2023-04-03T11:43:24;94464.06;;;13.73;61.21
34742;BME280;20968;42.696;23.360;2023-04-03T11:50:58;94458.38;;;13.90;63.43
34742;BME280;20968;42.696;23.360;2023-04-03T12:08:45;94472.72;;;13.59;65.47
34742;BME280;20968;42.696;23.360;2023-04-03T12:11:14;94477.78;;;13.55;65.37
34742;BME280;20968;42.696;23.360;2023-04-03T12:13:43;94480.66;;;13.38;66.50
34742;BME280;20968;42.696;23.360;2023-04-03T12:26:34;94465.34;;;12.92;70.38
34742;BME280;20968;42.696;23.360;2023-04-03T12:29:13;94457.06;;;12.92;71.00
34742;BME280;20968;42.696;23.360;2023-04-03T12:31:45;94457.63;;;12.74;71.03
34742;BME280;20968;42.696;23.360;2023-04-03T12:41:42;94445.44;;;12.47;73.18
34742;BME280;20968;42.696;23.360;2023-04-03T12:46:48;94442.19;;;12.49;73.91
34742;BME280;20968;42.696;23.360;2023-04-03T12:49:18;94430.16;;;12.36;74.30
34742;BME280;20968;42.696;23.360;2023-04-03T12:51:48;94425.88;;;12.40;74.08
34742;BME280;20968;42.696;23.360;2023-04-03T12:54:26;94423.94;;;12.30;74.93
34742;BME280;20968;42.696;23.360;2023-04-03T12:59:38;94416.19;;;12.23;75.57
34742;BME280;20968;42.696;23.360;2023-04-03T13:02:09;94418.19;;;12.22;75.82
34742;BME280;20968;42.696;23.360;2023-04-03T13:04:37;94419.44;;;12.21;76.41
34742;BME280;20968;42.696;23.360;2023-04-03T13:07:03;94427.28;;;12.06;76.45
34742;BME280;20968;42.696;23.360;2023-04-03T13:09:29;94417.03;;;11.90;77.17
34742;BME280;20968;42.696;23.360;2023-04-03T13:14:23;94424.53;;;11.95;77.17
34742;BME280;20968;42.696;23.360;2023-04-03T13:16:59;94425.28;;;11.96;77.89
34742;BME280;20968;42.696;23.360;2023-04-03T13:19:25;94419.53;;;11.88;78.45
34742;BME280;20968;42.696;23.360;2023-04-03T13:21:53;94423.28;;;11.91;78.91
34742;BME280;20968;42.696;23.360;2023-04-03T13:24:21;94413.03;;;11.86;78.31
34742;BME280;20968;42.696;23.360;2023-04-03T13:26:48;94410.06;;;11.67;79.04
34742;BME280;20968;42.696;23.360;2023-04-03T13:29:23;94411.56;;;11.68;79.15
34742;BME280;20968;42.696;23.360;2023-04-03T13:31:52;94415.03;;;11.80;78.61
34742;BME280;20968;42.696;23.360;2023-04-03T13:34:18;94407.75;;;11.82;79.24
34742;BME280;20968;42.696;23.360;2023-04-03T13:36:46;94410.00;;;11.78;78.16
34742;BME280;20968;42.696;23.360;2023-04-03T13:39:24;94404.28;;;11.60;78.89
34742;BME280;20968;42.696;23.360;2023-04-03T13:41:51;94404.53;;;11.67;78.71
34742;BME280;20968;42.696;23.360;2023-04-03T13:46:45;94400.00;;;11.70;78.30
34742;BME280;20968;42.696;23.360;2023-04-03T13:49:44;94405.53;;;11.64;78.65
34742;BME280;20968;42.696;23.360;2023-04-03T13:52:47;94400.00;;;11.75;78.28
34742;BME280;20968;42.696;23.360;2023-04-03T13:54:51;94398.97;;;11.78;78.10
34742;BME280;20968;42.696;23.360;2023-04-03T13:57:17;94393.50;;;11.67;79.13
34742;BME280;20968;42.696;23.360;2023-04-03T13:59:42;94390.75;;;11.67;79.38
34742;BME280;20968;42.696;23.360;2023-04-03T14:06:58;94387.41;;;11.91;79.48
34742;BME280;20968;42.696;23.360;2023-04-03T14:09:25;94391.47;;;11.84;79.71
34742;BME280;20968;42.696;23.360;2023-04-03T14:11:56;94385.91;;;11.90;78.90
34742;BME280;20968;42.696;23.360;2023-04-03T14:14:23;94385.66;;;11.93;79.47
34742;BME280;20968;42.696;23.360;2023-04-03T14:16:55;94374.66;;;11.88;77.95
34742;BME280;20968;42.696;23.360;2023-04-03T14:19:25;94383.66;;;11.94;78.47
34742;BME280;20968;42.696;23.360;2023-04-03T14:21:51;94384.91;;;11.87;77.90
34742;BME280;20968;42.696;23.360;2023-04-03T14:24:17;94381.44;;;11.81;78.89
34742;BME280;20968;42.696;23.360;2023-04-03T14:26:44;94381.44;;;11.70;78.52
34742;BME280;20968;42.696;23.360;2023-04-03T14:29:10;94376.72;;;11.60;78.27
34742;BME280;20968;42.696;23.360;2023-04-03T14:31:36;94385.50;;;11.64;78.43
34742;BME280;20968;42.696;23.360;2023-04-03T14:34:01;94376.44;;;11.74;79.19
34742;BME280;20968;42.696;23.360;2023-04-03T14:36:27;94380.94;;;11.77;78.88
34742;BME280;20968;42.696;23.360;2023-04-03T14:38:53;94383.94;;;11.79;79.01
34742;BME280;20968;42.696;23.360;2023-04-03T14:41:21;94379.16;;;11.91;79.10
34742;BME280;20968;42.696;23.360;2023-04-03T14:43:47;94371.13;;;11.87;78.29